createdAt,value
2019-01-10T00:00:17.595Z,3.93
2019-01-10T00:02:46.139Z,3.80
2019-01-10T00:05:15.083Z,4.30
2019-01-10T00:07:43.569Z,4.40
2019-01-10T00:10:14.503Z,3.60
2019-01-10T00:12:43.033Z,4.10
2019-01-10T00:15:18.609Z,3.90
2019-01-10T00:17:46.763Z,3.87
2019-01-10T00:20:16.920Z,3.77
2019-01-10T00:22:45.395Z,4.20
2019-01-10T00:25:15.392Z,4.50
2019-01-10T00:27:43.843Z,3.93
2019-01-10T00:30:20.269Z,3.80
2019-01-10T00:32:48.903Z,4.27
2019-01-10T00:35:17.303Z,4.07
2019-01-10T00:37:45.707Z,4.03
2019-01-10T00:40:16.205Z,3.80
2019-01-10T00:42:49.756Z,3.87
2019-01-10T00:45:16.991Z,3.53
2019-01-10T00:47:45.831Z,3.60
2019-01-10T00:50:16.361Z,3.33
2019-01-10T00:52:44.843Z,3.73
2019-01-10T00:55:13.715Z,3.97
2019-01-10T00:57:42.196Z,3.60
2019-01-10T01:00:14.489Z,3.77
2019-01-10T01:02:42.952Z,3.53
2019-01-10T01:05:13.696Z,3.57
2019-01-10T01:07:42.285Z,3.73
2019-01-10T01:10:14.120Z,3.70
2019-01-10T01:12:42.524Z,4.77
2019-01-10T01:15:13.082Z,3.63
2019-01-10T01:17:41.547Z,3.40
2019-01-10T01:20:11.667Z,3.80
2019-01-10T01:22:40.088Z,4.13
2019-01-10T01:25:11.012Z,4.30
2019-01-10T01:27:39.575Z,3.60
2019-01-10T01:30:11.267Z,3.43
2019-01-10T01:32:39.667Z,3.80
2019-01-10T01:35:08.792Z,3.47
2019-01-10T01:37:37.268Z,3.80
2019-01-10T01:40:09.302Z,3.30
2019-01-10T01:42:37.691Z,3.53
2019-01-10T01:45:08.748Z,3.57
2019-01-10T01:47:37.168Z,3.50
2019-01-10T01:50:08.632Z,3.33
2019-01-10T01:52:37.065Z,3.77
2019-01-10T01:55:06.119Z,3.00
2019-01-10T01:57:34.513Z,3.60
2019-01-10T02:00:03.250Z,3.20
2019-01-10T02:02:31.317Z,3.27
2019-01-10T02:04:59.727Z,3.47
2019-01-10T02:07:29.016Z,3.20
2019-01-10T02:09:57.492Z,3.13
2019-01-10T02:12:25.892Z,3.53
2019-01-10T02:14:54.301Z,3.47
2019-01-10T02:17:22.711Z,3.83
2019-01-10T02:19:51.141Z,3.40
2019-01-10T02:22:19.546Z,3.17
2019-01-10T02:24:47.949Z,3.07
2019-01-10T02:27:16.424Z,3.30
2019-01-10T02:29:44.844Z,2.93
2019-01-10T02:32:13.251Z,2.73
2019-01-10T02:34:41.659Z,2.43
2019-01-10T02:37:10.089Z,2.57
2019-01-10T02:39:38.491Z,3.17
2019-01-10T02:42:06.876Z,2.77
2019-01-10T02:44:35.292Z,2.70
2019-01-10T02:47:03.684Z,2.63
2019-01-10T02:49:32.085Z,3.13
2019-01-10T02:52:00.519Z,3.17
2019-01-10T02:54:28.910Z,2.90
2019-01-10T02:56:57.440Z,3.20
2019-01-10T02:59:25.978Z,2.97
2019-01-10T03:01:54.394Z,3.30
2019-01-10T03:04:22.859Z,2.80
2019-01-10T03:06:51.255Z,2.90
2019-01-10T03:09:19.659Z,2.70
2019-01-10T03:11:48.052Z,2.50
2019-01-10T03:14:17.158Z,3.17
2019-01-10T03:16:45.563Z,2.50
2019-01-10T03:19:13.944Z,2.40
2019-01-10T03:21:43.679Z,3.03
2019-01-10T03:24:12.068Z,2.90
2019-01-10T03:26:40.449Z,2.23
2019-01-10T03:29:08.874Z,2.33
2019-01-10T03:31:37.276Z,2.77
2019-01-10T03:34:05.737Z,2.90
2019-01-10T03:36:34.144Z,2.87
2019-01-10T03:39:02.603Z,3.00
2019-01-10T03:41:30.993Z,3.10
2019-01-10T03:43:59.407Z,3.07
2019-01-10T03:46:27.825Z,2.50
2019-01-10T03:48:56.222Z,2.80
2019-01-10T03:51:24.942Z,3.17
2019-01-10T03:53:54.009Z,2.60
2019-01-10T03:56:22.699Z,2.57
2019-01-10T03:58:52.695Z,2.70
2019-01-10T04:01:21.118Z,2.97
2019-01-10T04:03:49.597Z,3.00
2019-01-10T04:06:17.991Z,3.17
2019-01-10T04:08:46.393Z,2.87
2019-01-10T04:11:14.804Z,3.10
2019-01-10T04:13:43.452Z,3.07
2019-01-10T04:16:11.905Z,2.70
2019-01-10T04:18:40.309Z,3.10
2019-01-10T04:21:17.130Z,3.03
2019-01-10T04:23:38.858Z,3.00
2019-01-10T04:26:07.262Z,2.93
2019-01-10T04:28:35.652Z,2.97
2019-01-10T04:31:04.122Z,2.90
2019-01-10T04:33:33.185Z,3.10
2019-01-10T04:36:01.579Z,2.60
2019-01-10T04:38:29.966Z,3.03
2019-01-10T04:40:58.355Z,2.73
2019-01-10T04:43:26.757Z,3.23
2019-01-10T04:45:55.148Z,2.80
2019-01-10T04:48:23.549Z,2.73
2019-01-10T04:50:51.951Z,3.20
2019-01-10T04:53:20.363Z,2.87
2019-01-10T04:55:48.774Z,2.90
2019-01-10T04:58:17.172Z,3.03
2019-01-10T05:00:45.581Z,3.10
2019-01-10T05:03:14.009Z,3.30
2019-01-10T05:05:42.400Z,3.23
2019-01-10T05:08:10.826Z,3.13
2019-01-10T05:10:39.232Z,2.60
2019-01-10T05:13:07.638Z,3.00
2019-01-10T05:15:36.029Z,2.80
2019-01-10T05:18:05.180Z,3.07
2019-01-10T05:20:33.578Z,3.10
2019-01-10T05:23:02.541Z,3.20
2019-01-10T05:25:30.968Z,3.27
2019-01-10T05:27:59.346Z,3.53
2019-01-10T05:30:27.835Z,2.93
2019-01-10T05:35:39.767Z,3.20
2019-01-10T05:38:08.724Z,3.10
2019-01-10T05:40:37.204Z,3.40
2019-01-10T05:43:05.628Z,2.90
2019-01-10T05:45:34.036Z,3.30
2019-01-10T05:48:02.448Z,2.83
2019-01-10T05:50:30.834Z,3.43
2019-01-10T05:52:59.497Z,3.00
2019-01-10T05:55:27.893Z,3.23
2019-01-10T05:57:56.306Z,3.77
2019-01-10T06:00:25.944Z,3.17
2019-01-10T06:02:54.347Z,3.20
2019-01-10T06:05:22.810Z,3.30
2019-01-10T06:07:51.244Z,2.87
2019-01-10T06:10:24.672Z,3.23
2019-01-10T06:12:53.077Z,3.20
2019-01-10T06:15:21.628Z,4.00
2019-01-10T06:17:50.191Z,3.33
2019-01-10T06:20:20.736Z,2.97
2019-01-10T06:22:49.218Z,3.37
2019-01-10T06:25:17.611Z,3.33
2019-01-10T06:27:46.012Z,3.07
2019-01-10T06:30:19.347Z,3.80
2019-01-10T06:32:47.744Z,3.17
2019-01-10T06:35:16.229Z,3.70
2019-01-10T06:37:44.671Z,3.57
2019-01-10T06:40:16.212Z,3.50
2019-01-10T06:42:44.612Z,3.60
2019-01-10T06:45:15.712Z,3.17
2019-01-10T06:47:44.189Z,4.20
2019-01-10T06:50:15.034Z,3.60
2019-01-10T06:52:43.494Z,3.40
2019-01-10T06:55:12.020Z,4.10
2019-01-10T06:57:41.489Z,4.17
2019-01-10T07:00:13.193Z,3.67
2019-01-10T07:02:42.354Z,3.90
2019-01-10T07:05:11.182Z,4.27
2019-01-10T07:07:40.275Z,3.83
2019-01-10T07:10:21.140Z,4.10
2019-01-10T07:12:49.582Z,4.10
2019-01-10T07:15:17.972Z,3.27
2019-01-10T07:17:46.813Z,4.13
2019-01-10T07:20:15.287Z,3.87
2019-01-10T07:22:46.397Z,4.33
2019-01-10T07:25:15.533Z,3.40
2019-01-10T07:27:43.944Z,3.93
2019-01-10T07:30:17.354Z,3.70
2019-01-10T07:32:47.059Z,3.57
2019-01-10T07:35:15.522Z,3.70
2019-01-10T07:37:47.665Z,4.10
2019-01-10T07:40:16.537Z,3.90
2019-01-10T07:42:44.940Z,4.50
2019-01-10T07:45:16.437Z,3.80
2019-01-10T07:47:48.205Z,3.87
2019-01-10T07:50:18.534Z,3.47
2019-01-10T07:52:47.972Z,3.63
2019-01-10T07:55:17.035Z,3.70
2019-01-10T07:57:45.502Z,3.57
2019-01-10T08:00:18.729Z,3.57
2019-01-10T08:02:47.251Z,3.63
2019-01-10T08:05:15.740Z,3.37
2019-01-10T08:07:44.595Z,3.90
2019-01-10T08:10:15.411Z,3.10
2019-01-10T08:12:43.974Z,3.63
2019-01-10T08:15:15.999Z,3.30
2019-01-10T08:17:44.709Z,3.97
2019-01-10T08:20:13.383Z,3.63
2019-01-10T08:22:41.824Z,4.00
2019-01-10T08:25:29.560Z,4.67
2019-01-10T08:27:57.965Z,4.20
2019-01-10T08:30:26.666Z,4.60
2019-01-10T08:32:55.144Z,4.10
2019-01-10T08:35:24.184Z,3.33
2019-01-10T08:37:52.595Z,3.90
2019-01-10T08:40:21.461Z,3.87
2019-01-10T08:42:49.880Z,3.50
2019-01-10T08:45:21.899Z,3.70
2019-01-10T08:47:48.600Z,3.60
2019-01-10T08:50:22.678Z,4.40
2019-01-10T08:52:52.791Z,3.83
2019-01-10T08:55:21.352Z,4.03
2019-01-10T08:57:49.795Z,4.30
2019-01-10T09:00:20.320Z,3.83
2019-01-10T09:02:48.788Z,4.00
2019-01-10T09:05:17.273Z,3.90
2019-01-10T09:07:45.721Z,3.90
2019-01-10T09:10:22.912Z,3.90
2019-01-10T09:12:51.370Z,4.37
2019-01-10T09:15:25.387Z,3.80
2019-01-10T09:17:51.586Z,4.70
2019-01-10T09:20:20.052Z,4.10
2019-01-10T09:22:48.728Z,4.10
2019-01-10T09:25:17.844Z,3.80
2019-01-10T09:27:48.363Z,4.00
2019-01-10T09:30:18.798Z,3.80
2019-01-10T09:32:47.276Z,3.90
2019-01-10T09:35:18.927Z,3.97
2019-01-10T09:37:47.580Z,3.83
2019-01-10T09:40:18.005Z,3.97
2019-01-10T09:42:46.473Z,3.77
2019-01-10T09:45:20.702Z,4.03
2019-01-10T09:50:26.512Z,3.73
2019-01-10T09:52:54.983Z,3.90
2019-01-10T09:55:23.644Z,4.30
2019-01-10T09:57:52.071Z,4.17
2019-01-10T10:00:23.397Z,3.83
2019-01-10T10:02:51.803Z,3.80
2019-01-10T10:05:20.840Z,3.97
2019-01-10T10:07:49.388Z,3.97
2019-01-10T10:10:19.294Z,4.40
2019-01-10T10:12:47.738Z,4.70
2019-01-10T10:15:17.988Z,3.80
2019-01-10T10:17:46.507Z,4.37
2019-01-10T10:20:20.307Z,4.10
2019-01-10T10:22:48.790Z,4.60
2019-01-10T10:25:17.192Z,4.20
2019-01-10T10:27:45.863Z,4.57
2019-01-10T10:30:19.172Z,4.53
2019-01-10T10:32:47.821Z,4.17
2019-01-10T10:35:17.884Z,4.30
2019-01-10T10:37:46.764Z,4.43
2019-01-10T10:40:18.402Z,4.20
2019-01-10T10:42:49.126Z,4.67
2019-01-10T10:45:19.724Z,4.37
2019-01-10T10:47:48.299Z,5.23
2019-01-10T10:50:22.379Z,5.13
2019-01-10T10:52:51.156Z,4.13
2019-01-10T10:55:19.743Z,4.00
2019-01-10T10:57:49.811Z,4.20
2019-01-10T11:00:23.812Z,3.83
2019-01-10T11:02:52.989Z,4.57
2019-01-10T11:05:22.283Z,5.00
2019-01-10T11:07:50.850Z,4.67
2019-01-10T11:10:20.909Z,4.80
2019-01-10T11:12:50.267Z,4.60
2019-01-10T11:15:20.811Z,4.50
2019-01-10T11:17:51.215Z,5.10
2019-01-10T11:20:21.661Z,4.53
2019-01-10T11:22:50.362Z,4.70
2019-01-10T11:25:21.625Z,4.80
2019-01-10T11:27:51.720Z,4.80
2019-01-10T11:30:21.101Z,4.77
2019-01-10T11:32:49.731Z,4.87
2019-01-10T11:35:18.267Z,5.10
2019-01-10T11:37:47.448Z,5.03
2019-01-10T11:40:21.548Z,4.70
2019-01-10T11:42:53.203Z,4.40
2019-01-10T11:45:22.889Z,5.30
2019-01-10T11:47:52.093Z,4.60
2019-01-10T11:50:20.717Z,4.30
2019-01-10T11:52:50.084Z,4.57
2019-01-10T11:55:18.885Z,4.77
2019-01-10T11:57:47.420Z,4.80
2019-01-10T12:00:18.956Z,5.13
2019-01-10T12:02:48.225Z,4.90
2019-01-10T12:05:16.885Z,4.07
2019-01-10T12:07:45.426Z,4.67
2019-01-10T12:10:14.585Z,4.50
2019-01-10T12:12:43.090Z,4.67
2019-01-10T12:15:12.707Z,4.60
2019-01-10T12:17:41.246Z,4.03
2019-01-10T12:20:12.572Z,4.50
2019-01-10T12:22:42.616Z,4.43
2019-01-10T12:25:17.000Z,4.80
2019-01-10T12:27:45.902Z,4.60
2019-01-10T12:30:20.149Z,4.43
2019-01-10T12:32:48.776Z,4.77
2019-01-10T12:35:19.732Z,4.60
2019-01-10T12:37:50.302Z,4.57
2019-01-10T12:40:25.482Z,4.30
2019-01-10T12:42:50.001Z,4.53
2019-01-10T12:45:22.020Z,5.43
2019-01-10T12:47:53.256Z,4.60
2019-01-10T12:50:24.157Z,4.93
2019-01-10T12:52:52.793Z,4.37
2019-01-10T12:55:23.430Z,4.23
2019-01-10T12:57:53.407Z,5.30
2019-01-10T13:00:25.499Z,4.90
2019-01-10T13:02:56.403Z,4.83
2019-01-10T13:05:24.992Z,4.87
2019-01-10T13:08:03.498Z,5.40
2019-01-10T13:10:32.713Z,4.70
2019-01-10T13:12:59.504Z,4.77
2019-01-10T13:15:30.200Z,5.20
2019-01-10T13:18:00.421Z,5.40
2019-01-10T13:20:30.570Z,5.33
2019-01-10T13:23:01.118Z,6.47
2019-01-10T13:25:32.237Z,5.53
2019-01-10T13:28:01.017Z,5.03
2019-01-10T13:30:31.187Z,5.93
2019-01-10T13:33:26.561Z,6.20
2019-01-10T13:35:47.500Z,5.43
2019-01-10T13:38:15.997Z,5.47
2019-01-10T13:40:44.534Z,4.77
2019-01-10T13:43:14.909Z,6.60
2019-01-10T13:45:46.375Z,4.97
2019-01-10T13:48:17.078Z,5.70
2019-01-10T13:50:45.733Z,4.97
2019-01-10T13:53:15.800Z,4.90
2019-01-10T13:55:44.335Z,4.43
2019-01-10T13:58:14.465Z,4.67
2019-01-10T14:03:46.270Z,4.50
2019-01-10T14:06:16.376Z,4.07
2019-01-10T14:08:44.873Z,3.53
2019-01-10T14:11:33.284Z,4.00
2019-01-10T14:14:03.295Z,3.57
2019-01-10T14:16:32.816Z,3.83
2019-01-10T14:19:05.576Z,4.00
2019-01-10T14:21:35.559Z,3.57
2019-01-10T14:24:06.129Z,3.57
2019-01-10T14:26:38.368Z,3.60
2019-01-10T14:29:06.970Z,4.00
2019-01-10T14:31:35.521Z,4.00
2019-01-10T14:34:04.298Z,4.23
2019-01-10T14:36:32.889Z,4.30
2019-01-10T14:39:03.413Z,4.37
2019-01-10T14:41:31.680Z,4.47
2019-01-10T14:44:00.232Z,3.80
2019-01-10T14:46:29.630Z,4.90
2019-01-10T14:48:58.115Z,4.30
2019-01-10T14:51:27.433Z,4.40
2019-01-10T14:53:59.198Z,4.77
2019-01-10T14:56:27.908Z,5.23
2019-01-10T14:58:58.857Z,4.70
2019-01-10T15:01:28.066Z,4.40
2019-01-10T15:03:56.756Z,5.30
2019-01-10T15:06:29.938Z,5.33
2019-01-10T15:09:00.209Z,4.77
2019-01-10T15:11:29.539Z,4.43
2019-01-10T15:13:58.365Z,4.70
2019-01-10T15:16:28.439Z,4.37
2019-01-10T15:18:57.977Z,5.33
2019-01-10T15:21:28.045Z,4.03
2019-01-10T15:23:59.686Z,4.50
2019-01-10T15:26:30.515Z,4.27
2019-01-10T15:28:59.035Z,4.70
2019-01-10T15:31:28.152Z,3.77
2019-01-10T15:33:56.821Z,4.43
2019-01-10T15:36:25.535Z,4.43
2019-01-10T15:38:54.016Z,4.50
2019-01-10T15:41:22.464Z,5.13
2019-01-10T15:43:50.993Z,4.37
2019-01-10T15:46:19.530Z,4.97
2019-01-10T15:48:49.269Z,5.53
2019-01-10T15:51:28.882Z,5.83
2019-01-10T15:54:20.515Z,5.60
2019-01-10T16:09:39.949Z,6.70
2019-01-10T16:12:08.371Z,6.83
2019-01-10T16:14:36.781Z,6.13
2019-01-10T16:17:05.271Z,6.73
2019-01-10T16:19:33.676Z,6.27
2019-01-10T16:22:02.088Z,6.63
2019-01-10T16:24:33.471Z,6.03
2019-01-10T16:27:01.896Z,5.77
2019-01-10T16:29:30.376Z,6.50
2019-01-10T16:31:58.786Z,6.50
2019-01-10T16:34:27.211Z,6.67
2019-01-10T16:36:55.646Z,6.73
2019-01-10T16:39:24.046Z,6.43
2019-01-10T16:41:52.448Z,6.30
2019-01-10T16:44:20.849Z,6.40
2019-01-10T16:46:49.252Z,6.73
2019-01-10T16:49:17.701Z,6.53
2019-01-10T16:51:46.135Z,7.70
2019-01-10T16:54:14.545Z,6.93
2019-01-10T16:56:42.952Z,6.97
2019-01-10T16:59:11.435Z,7.17
2019-01-10T17:01:39.835Z,7.93
2019-01-10T17:04:08.255Z,7.67
2019-01-10T17:06:36.711Z,7.50
2019-01-10T17:09:07.439Z,8.10
2019-01-10T17:11:35.929Z,7.50
2019-01-10T17:14:04.667Z,7.40
2019-01-10T17:16:33.127Z,7.40
2019-01-10T17:19:01.788Z,7.43
2019-01-10T17:21:30.203Z,7.43
2019-01-10T17:23:58.636Z,7.53
2019-01-10T17:26:27.864Z,7.27
2019-01-10T17:28:56.336Z,7.17
2019-01-10T17:31:24.742Z,7.40
2019-01-10T17:33:53.148Z,7.93
2019-01-10T17:36:21.541Z,6.80
2019-01-10T17:38:50.640Z,8.47
2019-01-10T17:41:19.071Z,7.60
2019-01-10T17:43:47.474Z,7.40
2019-01-10T17:46:15.903Z,6.97
2019-01-10T17:48:44.317Z,7.30
2019-01-10T17:51:12.881Z,6.67
2019-01-10T17:53:41.262Z,7.43
2019-01-10T17:56:09.705Z,7.20
2019-01-10T17:58:38.089Z,7.90
2019-01-10T18:01:06.556Z,7.70
2019-01-10T18:03:40.092Z,7.53
2019-01-10T18:06:05.178Z,7.67
2019-01-10T18:08:33.876Z,8.63
2019-01-10T18:11:02.300Z,8.70
2019-01-10T18:13:30.781Z,7.70
2019-01-10T18:16:01.929Z,8.40
2019-01-10T18:18:30.345Z,10.00
2019-01-10T18:20:58.743Z,10.17
2019-01-10T18:23:28.378Z,8.77
2019-01-10T18:25:56.839Z,8.97
2019-01-10T18:28:25.260Z,9.10
2019-01-10T18:30:53.663Z,8.83
2019-01-10T18:33:22.087Z,9.87
2019-01-10T18:35:50.465Z,9.00
2019-01-10T18:38:18.896Z,10.00
2019-01-10T18:40:47.308Z,8.83
2019-01-10T18:43:15.389Z,9.30
2019-01-10T18:45:43.810Z,9.13
2019-01-10T18:48:12.236Z,8.50
2019-01-10T18:50:40.632Z,8.53
2019-01-10T18:53:09.048Z,8.47
2019-01-10T18:55:37.513Z,8.93
2019-01-10T18:58:06.018Z,8.30
2019-01-10T19:00:34.728Z,8.20
2019-01-10T19:03:03.601Z,9.10
2019-01-10T19:05:32.132Z,8.50
2019-01-10T19:08:00.634Z,7.80
2019-01-10T19:10:29.188Z,8.93
2019-01-10T19:12:57.658Z,7.77
2019-01-10T19:15:26.136Z,7.87
2019-01-10T19:17:54.907Z,8.23
2019-01-10T19:20:25.266Z,7.90
2019-01-10T19:22:54.174Z,8.33
2019-01-10T19:25:22.601Z,7.87
2019-01-10T19:27:51.085Z,8.00
2019-01-10T19:30:24.756Z,8.07
2019-01-10T19:32:53.306Z,8.03
2019-01-10T19:35:21.717Z,8.00
2019-01-10T19:37:50.165Z,8.57
2019-01-10T19:40:21.018Z,7.50
2019-01-10T19:42:49.422Z,7.13
2019-01-10T19:45:22.410Z,7.83
2019-01-10T19:47:50.959Z,8.53
2019-01-10T19:50:21.454Z,7.97
2019-01-10T19:52:50.008Z,8.57
2019-01-10T19:55:19.732Z,8.13
2019-01-10T19:57:48.290Z,7.50
2019-01-10T20:00:28.928Z,7.63
2019-01-10T20:02:57.463Z,8.20
2019-01-10T20:05:26.007Z,8.17
2019-01-10T20:07:54.497Z,8.83
2019-01-10T20:10:22.968Z,8.50
2019-01-10T20:12:51.548Z,8.13
2019-01-10T20:15:21.279Z,7.90
2019-01-10T20:17:49.755Z,9.00
2019-01-10T20:20:24.077Z,8.47
2019-01-10T20:22:52.628Z,9.20
2019-01-10T20:25:21.198Z,8.97
2019-01-10T20:27:49.687Z,9.30
2019-01-10T20:30:18.740Z,9.47
2019-01-10T20:32:47.231Z,8.60
2019-01-10T20:35:15.840Z,8.83
2019-01-10T20:37:44.328Z,9.00
2019-01-10T20:40:17.692Z,9.17
2019-01-10T20:42:46.259Z,9.07
2019-01-10T20:45:14.918Z,8.20
2019-01-10T20:47:43.479Z,7.57
2019-01-10T20:50:13.940Z,7.93
2019-01-10T20:52:42.449Z,7.47
2019-01-10T20:55:13.096Z,7.83
2019-01-10T20:57:41.588Z,7.47
2019-01-10T21:00:15.771Z,8.20
2019-01-10T21:02:44.253Z,7.97
2019-01-10T21:05:13.005Z,7.70
2019-01-10T21:07:41.572Z,7.70
2019-01-10T21:10:13.247Z,7.73
2019-01-10T21:12:41.875Z,7.67
2019-01-10T21:15:13.951Z,8.60
2019-01-10T21:17:42.535Z,8.20
2019-01-10T21:20:11.812Z,7.87
2019-01-10T21:22:40.227Z,8.50
2019-01-10T21:25:10.826Z,7.70
2019-01-10T21:27:40.340Z,8.23
2019-01-10T21:30:11.914Z,9.07
2019-01-10T21:32:40.993Z,9.17
2019-01-10T21:35:09.972Z,10.30
2019-01-10T21:37:38.371Z,9.10
2019-01-10T21:40:10.088Z,9.30
2019-01-10T21:42:38.490Z,9.70
2019-01-10T21:45:09.992Z,9.13
2019-01-10T21:47:38.486Z,8.30
2019-01-10T21:50:10.251Z,8.90
2019-01-10T21:52:38.678Z,8.70
2019-01-10T21:55:09.517Z,10.23
2019-01-10T21:57:38.070Z,9.40
2019-01-10T22:00:09.544Z,9.50
2019-01-10T22:02:37.962Z,9.87
2019-01-10T22:05:06.804Z,9.33
2019-01-10T22:07:35.212Z,9.30
2019-01-10T22:10:04.974Z,8.90
2019-01-10T22:12:33.384Z,9.40
2019-01-10T22:15:01.854Z,9.37
2019-01-10T22:17:30.248Z,9.37
2019-01-10T22:19:58.677Z,10.13
2019-01-10T22:22:27.066Z,9.73
2019-01-10T22:24:55.467Z,10.40
2019-01-10T22:27:23.873Z,10.40
2019-01-10T22:29:52.272Z,9.67
2019-01-10T22:32:20.781Z,10.27
2019-01-10T22:34:49.171Z,10.67
2019-01-10T22:37:17.568Z,9.60
2019-01-10T22:39:46.443Z,10.73
2019-01-10T22:42:14.974Z,10.77
2019-01-10T22:44:43.456Z,10.00
2019-01-10T22:47:11.874Z,10.97
2019-01-10T22:49:40.287Z,10.57
2019-01-10T22:52:08.688Z,10.10
2019-01-10T22:54:37.095Z,10.13
2019-01-10T22:57:05.518Z,10.10
2019-01-10T22:59:33.927Z,9.77
2019-01-10T23:02:03.119Z,10.07
2019-01-10T23:04:32.536Z,9.73
2019-01-10T23:07:01.700Z,9.57
2019-01-10T23:09:30.174Z,10.67
2019-01-10T23:11:58.657Z,10.50
2019-01-10T23:14:27.239Z,10.47
2019-01-10T23:16:55.795Z,10.97
2019-01-10T23:19:24.188Z,11.20
2019-01-10T23:21:52.605Z,11.07
2019-01-10T23:24:26.772Z,11.23
2019-01-10T23:26:52.927Z,11.90
2019-01-10T23:29:21.548Z,11.73
2019-01-10T23:31:50.300Z,11.70
2019-01-10T23:34:18.704Z,11.93
2019-01-10T23:36:49.010Z,12.03
2019-01-10T23:39:19.132Z,12.57
2019-01-10T23:41:47.821Z,12.20
2019-01-10T23:44:16.225Z,13.23
2019-01-10T23:46:44.716Z,13.43
2019-01-10T23:49:13.123Z,13.70
2019-01-10T23:51:41.665Z,13.83
2019-01-10T23:54:10.075Z,14.23
2019-01-10T23:56:38.554Z,16.20
2019-01-10T23:59:06.954Z,14.53
